Hanjin Phoenix — A8CN9 — position and weather

sailwx.info

Track history (hours):
 
Tides and Currents Weather Stations Pressure Air Temp Water Temp Dewpoint Dewpoint Depression Visibility Wind Speed Wind Dir Waves Ship Positions

Hanjin Phoenix

Last reported at 2014-Nov-27 12:23 UTC. Time now 2014-Nov-27 19:38 UTC.
Position N 39°25' W 000°16'.

Length 282.1 m; beam 32.2 m; draft 13 m.

Type: Ship. MMSI: 636090671.

Date/timePositionNaut miles runAvg speedWind from/ knotsBaromVisibWave heightAir tempDewpointWater temp
2014-Nov-27 12:23N 39°25' W 000°16'3 3.4
2014-Nov-27 11:31N 39°27' W 000°19'0 0.0
2014-Nov-27 10:31N 39°27' W 000°19'0 0.0
2014-Nov-27 09:33N 39°27' W 000°19'0 0.0
2014-Nov-27 08:33N 39°27' W 000°19'0 0.0
2014-Nov-27 07:33N 39°27' W 000°19'0 0.0
2014-Nov-27 06:33N 39°27' W 000°19'0 0.0
2014-Nov-27 05:33N 39°27' W 000°19'0 0.0
2014-Nov-27 04:33N 39°27' W 000°19'0 0.0
2014-Nov-27 03:30N 39°27' W 000°19'0 0.0
2014-Nov-27 02:33N 39°27' W 000°19'0 0.0
2014-Nov-27 01:33N 39°27' W 000°19'0 0.0
2014-Nov-27 00:33N 39°27' W 000°19'0 0.0
2014-Nov-26 23:33N 39°27' W 000°19'0 0.0
2014-Nov-26 22:33N 39°27' W 000°19'0 0.0
2014-Nov-26 21:33N 39°27' W 000°19'0 0.0
2014-Nov-26 20:33N 39°27' W 000°19'0 0.0
2014-Nov-26 19:33N 39°27' W 000°19'0 0.0
2014-Nov-26 18:30N 39°27' W 000°19'0 0.0
2014-Nov-26 17:33N 39°27' W 000°19'0 0.0
2014-Nov-26 16:33N 39°27' W 000°19'0 0.0
2014-Nov-26 15:33N 39°27' W 000°19'0 0.0
2014-Nov-26 14:30N 39°27' W 000°19'0 0.0
2014-Nov-26 13:33N 39°27' W 000°19'0 0.0
2014-Nov-26 12:33N 39°27' W 000°19'0 0.0
2014-Nov-26 11:30N 39°27' W 000°19'0 0.0
2014-Nov-26 10:33N 39°27' W 000°19'76 5.9
2014-Nov-25 21:33N 40°02' E 001°09'1212.1
2014-Nov-25 20:33N 40°12' E 001°19'1212.2
2014-Nov-25 19:33N 40°21' E 001°29'1212.5
2014-Nov-25 18:33N 40°31' E 001°40'1212.4
2014-Nov-25 17:33N 40°40' E 001°50'2 2.3
2014-Nov-25 16:34N 40°42' E 001°52'1 0.6
2014-Nov-25 15:33N 40°42' E 001°53'1 0.6
2014-Nov-25 14:33N 40°42' E 001°53'0 0.4
2014-Nov-25 13:33N 40°41' E 001°54'0 0.4
2014-Nov-25 12:33N 40°42' E 001°53'8 8.3
2014-Nov-25 11:33N 40°50' E 001°56'1211.7
2014-Nov-25 10:33N 41°01' E 001°59'1310.4
2014-Nov-25 09:16N 41°13' E 002°07'6 7.9
2014-Nov-25 08:33N 41°18' E 002°10'3 0.3
2014-Nov-24 22:33N 41°21' E 002°10'0 0.0
2014-Nov-24 21:27N 41°21' E 002°10'1 0.6
2014-Nov-24 20:13N 41°20' E 002°10'1 1.6
2014-Nov-24 19:33N 41°19' E 002°10'4 3.9
2014-Nov-24 18:33N 41°16' E 002°11'43 9.7
2014-Nov-24 14:07N 41°36' E 003°02'1111.7
2014-Nov-24 13:09N 41°41' E 003°15'1911.5
2014-Nov-24 11:28N 41°50' E 003°39'1311.2
2014-Nov-24 10:18N 41°56' E 003°54'2411.4
2014-Nov-24 08:13N 42°06' E 004°23'1614.6
2014-Nov-24 07:05N 42°14' E 004°43'610.7
2014-Nov-24 06:33N 42°16' E 004°50'2610.7
2014-Nov-24 04:09N 42°28' E 005°21'710.9
2014-Nov-24 03:29N 42°31' E 005°29'1011.0
2014-Nov-24 02:33N 42°36' E 005°42'1111.4
2014-Nov-24 01:33N 42°41' E 005°56'1211.7
2014-Nov-24 00:33N 42°46' E 006°10'1212.0
2014-Nov-23 23:33N 42°52' E 006°24'1211.9
2014-Nov-23 22:33N 42°58' E 006°38'1211.7
2014-Nov-23 21:33N 43°04' E 006°52'1211.6
2014-Nov-23 20:33N 43°11' E 007°05'1111.4
2014-Nov-23 19:33N 43°17' E 007°18'1411.3
2014-Nov-23 18:18N 43°25' E 007°34'6811.3
2014-Nov-23 12:20N 44°15' E 008°37'912.0
2014-Nov-23 11:33N 44°23' E 008°43'3 3.3
2014-Nov-23 10:33N 44°25' E 008°47'0 0.0
2014-Nov-23 09:33N 44°25' E 008°47'0 0.0
2014-Nov-23 08:33N 44°25' E 008°47'0 0.0
2014-Nov-23 07:33N 44°25' E 008°47'0 0.0
2014-Nov-23 06:31N 44°25' E 008°47'0 0.0
2014-Nov-23 05:31N 44°25' E 008°47'0 0.0
2014-Nov-23 04:31N 44°25' E 008°47'0 0.0
2014-Nov-23 03:25N 44°25' E 008°47'0 0.0
2014-Nov-23 02:31N 44°25' E 008°47'0 0.0
2014-Nov-23 01:31N 44°25' E 008°47'0 0.0
2014-Nov-23 00:31N 44°25' E 008°47'0 0.0
2014-Nov-22 23:28N 44°25' E 008°47'0 0.0
2014-Nov-22 22:31N 44°25' E 008°47'0 0.0
2014-Nov-22 20:31N 44°25' E 008°47'0 0.0
2014-Nov-22 19:28N 44°25' E 008°47'0 0.0
2014-Nov-22 18:19N 44°25' E 008°47'0 0.0
2014-Nov-22 16:15N 44°25' E 008°47'3 4.8
2014-Nov-22 15:33N 44°23' E 008°44'1414.4
2014-Nov-22 14:33N 44°12' E 008°56'1211.9
2014-Nov-22 13:33N 44°02' E 009°06'1211.6
2014-Nov-22 12:33N 43°54' E 009°17'1211.7
2014-Nov-22 11:33N 43°46' E 009°30'1211.6
2014-Nov-22 10:33N 43°39' E 009°42'1211.9
2014-Nov-22 09:33N 43°31' E 009°55'1111.1
2014-Nov-22 08:33N 43°31' E 010°10'7 7.0
2014-Nov-22 07:33N 43°34' E 010°18'0 0.4
2014-Nov-22 06:33N 43°34' E 010°18'0 0.0
2014-Nov-22 05:33N 43°34' E 010°18'0 0.0
2014-Nov-22 04:33N 43°34' E 010°18'0 0.0
2014-Nov-22 03:33N 43°34' E 010°18'0 0.0
2014-Nov-22 02:33N 43°34' E 010°18'0 0.0
2014-Nov-22 01:33N 43°34' E 010°18'0 0.0
2014-Nov-22 00:33N 43°34' E 010°18'0 0.0
2014-Nov-21 23:33N 43°34' E 010°18'0 0.0
2014-Nov-21 22:33N 43°34' E 010°18'0 0.0
2014-Nov-21 21:33N 43°34' E 010°18'0 0.0
2014-Nov-21 20:30N 43°34' E 010°18'0 0.0
2014-Nov-21 19:32N 43°34' E 010°18'0 0.0
2014-Nov-21 18:32N 43°34' E 010°18'0 0.0
2014-Nov-21 17:32N 43°34' E 010°18'0 0.0
2014-Nov-21 16:32N 43°34' E 010°18'0 0.0
2014-Nov-21 15:32N 43°34' E 010°18'0 0.0
2014-Nov-21 14:32N 43°34' E 010°18'0 0.0
2014-Nov-21 13:32N 43°34' E 010°18'0 0.0
2014-Nov-21 12:32N 43°34' E 010°18'0 0.0
2014-Nov-21 11:31N 43°34' E 010°18'0 0.0
2014-Nov-21 10:33N 43°34' E 010°18'0 0.0
2014-Nov-21 09:33N 43°34' E 010°18'0 0.0
2014-Nov-21 08:33N 43°34' E 010°18'0 0.0
2014-Nov-21 07:31N 43°34' E 010°18'0 0.0
2014-Nov-21 06:32N 43°34' E 010°18'0 0.0
2014-Nov-21 05:29N 43°34' E 010°18'0 0.0
2014-Nov-21 04:29N 43°34' E 010°18'0 0.0
2014-Nov-21 03:32N 43°34' E 010°18'0 0.0
2014-Nov-21 02:32N 43°34' E 010°18'0 0.0
2014-Nov-21 01:29N 43°34' E 010°18'0 0.0
2014-Nov-21 00:32N 43°34' E 010°18'0 0.0
2014-Nov-20 23:32N 43°34' E 010°18'0 0.0
2014-Nov-20 22:32N 43°34' E 010°18'0 0.0
2014-Nov-20 21:32N 43°34' E 010°18'0 0.0
2014-Nov-20 20:32N 43°34' E 010°18'0 0.0
2014-Nov-20 19:29N 43°34' E 010°18'0 0.0
2014-Nov-20 18:32N 43°34' E 010°18'0 0.0
2014-Nov-20 17:32N 43°34' E 010°18'0 0.0
2014-Nov-20 16:32N 43°34' E 010°18'0 0.0
2014-Nov-20 15:32N 43°34' E 010°18'0 0.0
2014-Nov-20 14:32N 43°34' E 010°18'0 0.0
2014-Nov-20 13:32N 43°34' E 010°18'0 0.0
2014-Nov-20 12:32N 43°34' E 010°18'0 0.0
2014-Nov-20 11:31N 43°34' E 010°18'0 0.0
2014-Nov-20 10:31N 43°34' E 010°18'0 0.0
2014-Nov-20 09:31N 43°34' E 010°18'3 3.2
2014-Nov-20 08:33N 43°32' E 010°16'3 2.8
2014-Nov-20 07:33N 43°29' E 010°15'0 0.1
2014-Nov-20 06:32N 43°29' E 010°15'0 0.1
2014-Nov-20 05:32N 43°29' E 010°16'0 0.0
2014-Nov-20 04:32N 43°29' E 010°16'0 0.1
2014-Nov-20 03:32N 43°29' E 010°16'0 0.1
2014-Nov-20 02:32N 43°29' E 010°16'0 0.0
2014-Nov-20 01:32N 43°29' E 010°16'0 0.0
2014-Nov-20 00:32N 43°29' E 010°16'0 0.1
2014-Nov-19 23:32N 43°29' E 010°16'0 0.0
2014-Nov-19 22:32N 43°29' E 010°16'0 0.1
2014-Nov-19 21:32N 43°29' E 010°16'0 0.0
2014-Nov-19 20:32N 43°29' E 010°16'0 0.1
2014-Nov-19 19:32N 43°29' E 010°16'9 9.6
2014-Nov-19 18:33N 43°21' E 010°09'1110.6
2014-Nov-19 17:33N 43°11' E 010°04'25311.0
2014-Nov-18 18:30N 38°59' E 009°26'1212.3
2014-Nov-18 17:33N 39°05' E 009°12'9 8.9
2014-Nov-18 16:33N 39°12' E 009°06'2 1.7
2014-Nov-18 15:32N 39°13' E 009°04'0 0.0
2014-Nov-18 14:32N 39°13' E 009°04'0 0.0
2014-Nov-18 13:32N 39°13' E 009°04'0 0.0
2014-Nov-18 12:32N 39°13' E 009°04'0 0.0
2014-Nov-18 11:32N 39°13' E 009°04'0 0.0
2014-Nov-18 10:32N 39°13' E 009°04'0 0.0
2014-Nov-18 09:32N 39°13' E 009°04'0 0.0
2014-Nov-18 08:32N 39°13' E 009°04'0 0.0
2014-Nov-18 07:32N 39°13' E 009°04'0 0.0
2014-Nov-18 06:32N 39°13' E 009°04'0 0.0
2014-Nov-18 05:32N 39°13' E 009°04'0 0.0
2014-Nov-18 04:32N 39°13' E 009°04'0 0.0
2014-Nov-18 03:32N 39°13' E 009°04'0 0.0
2014-Nov-18 02:32N 39°13' E 009°04'0 0.0
2014-Nov-18 01:32N 39°13' E 009°04'0 0.0
2014-Nov-18 00:32N 39°13' E 009°04'0 0.0
2014-Nov-17 23:32N 39°13' E 009°04'0 0.0
2014-Nov-17 22:32N 39°13' E 009°04'0 0.0
2014-Nov-17 21:32N 39°13' E 009°04'0 0.0
2014-Nov-17 20:32N 39°13' E 009°04'0 0.0
2014-Nov-17 19:32N 39°13' E 009°04'0 0.0
2014-Nov-17 18:32N 39°13' E 009°04'0 0.0
2014-Nov-17 17:29N 39°13' E 009°04'0 0.0
2014-Nov-17 16:32N 39°13' E 009°04'0 0.0
2014-Nov-17 15:32N 39°13' E 009°04'0 0.0
2014-Nov-17 14:29N 39°13' E 009°04'0 0.0
2014-Nov-17 13:32N 39°13' E 009°04'0 0.0
2014-Nov-17 12:33N 39°13' E 009°04'  
Track history (hours):
 
Tides and Currents Weather Stations Pressure Air Temp Water Temp Dewpoint Dewpoint Depression Visibility Wind Speed Wind Dir Waves Ship Positions

Hanjin Phoenix

Last reported at 2014-Nov-27 12:23 UTC. Time now 2014-Nov-27 19:38 UTC.
Position N 39°25' W 000°16'.

Length 282.1 m; beam 32.2 m; draft 13 m.

Type: Ship. MMSI: 636090671.

Date/timePositionNaut miles runAvg speedWind from/ knotsBaromVisibWave heightAir tempDewpointWater temp
2014-Nov-27 12:23N 39°25' W 000°16'3 3.4
2014-Nov-27 11:31N 39°27' W 000°19'0 0.0
2014-Nov-27 10:31N 39°27' W 000°19'0 0.0
2014-Nov-27 09:33N 39°27' W 000°19'0 0.0
2014-Nov-27 08:33N 39°27' W 000°19'0 0.0
2014-Nov-27 07:33N 39°27' W 000°19'0 0.0
2014-Nov-27 06:33N 39°27' W 000°19'0 0.0
2014-Nov-27 05:33N 39°27' W 000°19'0 0.0
2014-Nov-27 04:33N 39°27' W 000°19'0 0.0
2014-Nov-27 03:30N 39°27' W 000°19'0 0.0
2014-Nov-27 02:33N 39°27' W 000°19'0 0.0
2014-Nov-27 01:33N 39°27' W 000°19'0 0.0
2014-Nov-27 00:33N 39°27' W 000°19'0 0.0
2014-Nov-26 23:33N 39°27' W 000°19'0 0.0
2014-Nov-26 22:33N 39°27' W 000°19'0 0.0
2014-Nov-26 21:33N 39°27' W 000°19'0 0.0
2014-Nov-26 20:33N 39°27' W 000°19'0 0.0
2014-Nov-26 19:33N 39°27' W 000°19'0 0.0
2014-Nov-26 18:30N 39°27' W 000°19'0 0.0
2014-Nov-26 17:33N 39°27' W 000°19'0 0.0
2014-Nov-26 16:33N 39°27' W 000°19'0 0.0
2014-Nov-26 15:33N 39°27' W 000°19'0 0.0
2014-Nov-26 14:30N 39°27' W 000°19'0 0.0
2014-Nov-26 13:33N 39°27' W 000°19'0 0.0
2014-Nov-26 12:33N 39°27' W 000°19'0 0.0
2014-Nov-26 11:30N 39°27' W 000°19'0 0.0
2014-Nov-26 10:33N 39°27' W 000°19'76 5.9
2014-Nov-25 21:33N 40°02' E 001°09'1212.1
2014-Nov-25 20:33N 40°12' E 001°19'1212.2
2014-Nov-25 19:33N 40°21' E 001°29'1212.5
2014-Nov-25 18:33N 40°31' E 001°40'1212.4
2014-Nov-25 17:33N 40°40' E 001°50'2 2.3
2014-Nov-25 16:34N 40°42' E 001°52'1 0.6
2014-Nov-25 15:33N 40°42' E 001°53'1 0.6
2014-Nov-25 14:33N 40°42' E 001°53'0 0.4
2014-Nov-25 13:33N 40°41' E 001°54'0 0.4
2014-Nov-25 12:33N 40°42' E 001°53'8 8.3
2014-Nov-25 11:33N 40°50' E 001°56'1211.7
2014-Nov-25 10:33N 41°01' E 001°59'1310.4
2014-Nov-25 09:16N 41°13' E 002°07'6 7.9
2014-Nov-25 08:33N 41°18' E 002°10'3 0.3
2014-Nov-24 22:33N 41°21' E 002°10'0 0.0
2014-Nov-24 21:27N 41°21' E 002°10'1 0.6
2014-Nov-24 20:13N 41°20' E 002°10'1 1.6
2014-Nov-24 19:33N 41°19' E 002°10'4 3.9
2014-Nov-24 18:33N 41°16' E 002°11'43 9.7
2014-Nov-24 14:07N 41°36' E 003°02'1111.7
2014-Nov-24 13:09N 41°41' E 003°15'1911.5
2014-Nov-24 11:28N 41°50' E 003°39'1311.2
2014-Nov-24 10:18N 41°56' E 003°54'2411.4
2014-Nov-24 08:13N 42°06' E 004°23'1614.6
2014-Nov-24 07:05N 42°14' E 004°43'610.7
2014-Nov-24 06:33N 42°16' E 004°50'2610.7
2014-Nov-24 04:09N 42°28' E 005°21'710.9
2014-Nov-24 03:29N 42°31' E 005°29'1011.0
2014-Nov-24 02:33N 42°36' E 005°42'1111.4
2014-Nov-24 01:33N 42°41' E 005°56'1211.7
2014-Nov-24 00:33N 42°46' E 006°10'1212.0
2014-Nov-23 23:33N 42°52' E 006°24'1211.9
2014-Nov-23 22:33N 42°58' E 006°38'1211.7
2014-Nov-23 21:33N 43°04' E 006°52'1211.6
2014-Nov-23 20:33N 43°11' E 007°05'1111.4
2014-Nov-23 19:33N 43°17' E 007°18'1411.3
2014-Nov-23 18:18N 43°25' E 007°34'6811.3
2014-Nov-23 12:20N 44°15' E 008°37'912.0
2014-Nov-23 11:33N 44°23' E 008°43'3 3.3
2014-Nov-23 10:33N 44°25' E 008°47'0 0.0
2014-Nov-23 09:33N 44°25' E 008°47'0 0.0
2014-Nov-23 08:33N 44°25' E 008°47'0 0.0
2014-Nov-23 07:33N 44°25' E 008°47'0 0.0
2014-Nov-23 06:31N 44°25' E 008°47'0 0.0
2014-Nov-23 05:31N 44°25' E 008°47'0 0.0
2014-Nov-23 04:31N 44°25' E 008°47'0 0.0
2014-Nov-23 03:25N 44°25' E 008°47'0 0.0
2014-Nov-23 02:31N 44°25' E 008°47'0 0.0
2014-Nov-23 01:31N 44°25' E 008°47'0 0.0
2014-Nov-23 00:31N 44°25' E 008°47'0 0.0
2014-Nov-22 23:28N 44°25' E 008°47'0 0.0
2014-Nov-22 22:31N 44°25' E 008°47'0 0.0
2014-Nov-22 20:31N 44°25' E 008°47'0 0.0
2014-Nov-22 19:28N 44°25' E 008°47'0 0.0
2014-Nov-22 18:19N 44°25' E 008°47'0 0.0
2014-Nov-22 16:15N 44°25' E 008°47'3 4.8
2014-Nov-22 15:33N 44°23' E 008°44'1414.4
2014-Nov-22 14:33N 44°12' E 008°56'1211.9
2014-Nov-22 13:33N 44°02' E 009°06'1211.6
2014-Nov-22 12:33N 43°54' E 009°17'1211.7
2014-Nov-22 11:33N 43°46' E 009°30'1211.6
2014-Nov-22 10:33N 43°39' E 009°42'1211.9
2014-Nov-22 09:33N 43°31' E 009°55'1111.1
2014-Nov-22 08:33N 43°31' E 010°10'7 7.0
2014-Nov-22 07:33N 43°34' E 010°18'0 0.4
2014-Nov-22 06:33N 43°34' E 010°18'0 0.0
2014-Nov-22 05:33N 43°34' E 010°18'0 0.0
2014-Nov-22 04:33N 43°34' E 010°18'0 0.0
2014-Nov-22 03:33N 43°34' E 010°18'0 0.0
2014-Nov-22 02:33N 43°34' E 010°18'0 0.0
2014-Nov-22 01:33N 43°34' E 010°18'0 0.0
2014-Nov-22 00:33N 43°34' E 010°18'0 0.0
2014-Nov-21 23:33N 43°34' E 010°18'0 0.0
2014-Nov-21 22:33N 43°34' E 010°18'0 0.0
2014-Nov-21 21:33N 43°34' E 010°18'0 0.0
2014-Nov-21 20:30N 43°34' E 010°18'0 0.0
2014-Nov-21 19:32N 43°34' E 010°18'0 0.0
2014-Nov-21 18:32N 43°34' E 010°18'0 0.0
2014-Nov-21 17:32N 43°34' E 010°18'0 0.0
2014-Nov-21 16:32N 43°34' E 010°18'0 0.0
2014-Nov-21 15:32N 43°34' E 010°18'0 0.0
2014-Nov-21 14:32N 43°34' E 010°18'0 0.0
2014-Nov-21 13:32N 43°34' E 010°18'0 0.0
2014-Nov-21 12:32N 43°34' E 010°18'0 0.0
2014-Nov-21 11:31N 43°34' E 010°18'0 0.0
2014-Nov-21 10:33N 43°34' E 010°18'0 0.0
2014-Nov-21 09:33N 43°34' E 010°18'0 0.0
2014-Nov-21 08:33N 43°34' E 010°18'0 0.0
2014-Nov-21 07:31N 43°34' E 010°18'0 0.0
2014-Nov-21 06:32N 43°34' E 010°18'0 0.0
2014-Nov-21 05:29N 43°34' E 010°18'0 0.0
2014-Nov-21 04:29N 43°34' E 010°18'0 0.0
2014-Nov-21 03:32N 43°34' E 010°18'0 0.0
2014-Nov-21 02:32N 43°34' E 010°18'0 0.0
2014-Nov-21 01:29N 43°34' E 010°18'0 0.0
2014-Nov-21 00:32N 43°34' E 010°18'0 0.0
2014-Nov-20 23:32N 43°34' E 010°18'0 0.0
2014-Nov-20 22:32N 43°34' E 010°18'0 0.0
2014-Nov-20 21:32N 43°34' E 010°18'0 0.0
2014-Nov-20 20:32N 43°34' E 010°18'0 0.0
2014-Nov-20 19:29N 43°34' E 010°18'0 0.0
2014-Nov-20 18:32N 43°34' E 010°18'0 0.0
2014-Nov-20 17:32N 43°34' E 010°18'0 0.0
2014-Nov-20 16:32N 43°34' E 010°18'0 0.0
2014-Nov-20 15:32N 43°34' E 010°18'0 0.0
2014-Nov-20 14:32N 43°34' E 010°18'0 0.0
2014-Nov-20 13:32N 43°34' E 010°18'0 0.0
2014-Nov-20 12:32N 43°34' E 010°18'0 0.0
2014-Nov-20 11:31N 43°34' E 010°18'0 0.0
2014-Nov-20 10:31N 43°34' E 010°18'0 0.0
2014-Nov-20 09:31N 43°34' E 010°18'3 3.2
2014-Nov-20 08:33N 43°32' E 010°16'3 2.8
2014-Nov-20 07:33N 43°29' E 010°15'0 0.1
2014-Nov-20 06:32N 43°29' E 010°15'0 0.1
2014-Nov-20 05:32N 43°29' E 010°16'0 0.0
2014-Nov-20 04:32N 43°29' E 010°16'0 0.1
2014-Nov-20 03:32N 43°29' E 010°16'0 0.1
2014-Nov-20 02:32N 43°29' E 010°16'0 0.0
2014-Nov-20 01:32N 43°29' E 010°16'0 0.0
2014-Nov-20 00:32N 43°29' E 010°16'0 0.1
2014-Nov-19 23:32N 43°29' E 010°16'0 0.0
2014-Nov-19 22:32N 43°29' E 010°16'0 0.1
2014-Nov-19 21:32N 43°29' E 010°16'0 0.0
2014-Nov-19 20:32N 43°29' E 010°16'0 0.1
2014-Nov-19 19:32N 43°29' E 010°16'9 9.6
2014-Nov-19 18:33N 43°21' E 010°09'1110.6
2014-Nov-19 17:33N 43°11' E 010°04'25311.0
2014-Nov-18 18:30N 38°59' E 009°26'1212.3
2014-Nov-18 17:33N 39°05' E 009°12'9 8.9
2014-Nov-18 16:33N 39°12' E 009°06'2 1.7
2014-Nov-18 15:32N 39°13' E 009°04'0 0.0
2014-Nov-18 14:32N 39°13' E 009°04'0 0.0
2014-Nov-18 13:32N 39°13' E 009°04'0 0.0
2014-Nov-18 12:32N 39°13' E 009°04'0 0.0
2014-Nov-18 11:32N 39°13' E 009°04'0 0.0
2014-Nov-18 10:32N 39°13' E 009°04'0 0.0
2014-Nov-18 09:32N 39°13' E 009°04'0 0.0
2014-Nov-18 08:32N 39°13' E 009°04'0 0.0
2014-Nov-18 07:32N 39°13' E 009°04'0 0.0
2014-Nov-18 06:32N 39°13' E 009°04'0 0.0
2014-Nov-18 05:32N 39°13' E 009°04'0 0.0
2014-Nov-18 04:32N 39°13' E 009°04'0 0.0
2014-Nov-18 03:32N 39°13' E 009°04'0 0.0
2014-Nov-18 02:32N 39°13' E 009°04'0 0.0
2014-Nov-18 01:32N 39°13' E 009°04'0 0.0
2014-Nov-18 00:32N 39°13' E 009°04'0 0.0
2014-Nov-17 23:32N 39°13' E 009°04'0 0.0
2014-Nov-17 22:32N 39°13' E 009°04'0 0.0
2014-Nov-17 21:32N 39°13' E 009°04'0 0.0
2014-Nov-17 20:32N 39°13' E 009°04'0 0.0
2014-Nov-17 19:32N 39°13' E 009°04'0 0.0
2014-Nov-17 18:32N 39°13' E 009°04'0 0.0
2014-Nov-17 17:29N 39°13' E 009°04'0 0.0
2014-Nov-17 16:32N 39°13' E 009°04'0 0.0
2014-Nov-17 15:32N 39°13' E 009°04'0 0.0
2014-Nov-17 14:29N 39°13' E 009°04'0 0.0
2014-Nov-17 13:32N 39°13' E 009°04'0 0.0
2014-Nov-17 12:33N 39°13' E 009°04'  

Dump ship's entire track history